sensor_id;sensor_type;location;lat;lon;timestamp;P1;durP1;ratioP1;P2;durP2;ratioP2
7017;SDS011;3549;42.162;24.726;2023-03-23T00:01:53;40.67;;;20.13;;
7017;SDS011;3549;42.162;24.726;2023-03-23T00:04:19;38.97;;;20.47;;
7017;SDS011;3549;42.162;24.726;2023-03-23T00:06:45;40.83;;;21.10;;
7017;SDS011;3549;42.162;24.726;2023-03-23T00:09:12;38.23;;;20.20;;
7017;SDS011;3549;42.162;24.726;2023-03-23T00:11:40;42.63;;;21.70;;
7017;SDS011;3549;42.162;24.726;2023-03-23T00:14:06;40.73;;;20.97;;
7017;SDS011;3549;42.162;24.726;2023-03-23T00:16:38;40.13;;;21.23;;
7017;SDS011;3549;42.162;24.726;2023-03-23T00:19:09;39.23;;;21.43;;
7017;SDS011;3549;42.162;24.726;2023-03-23T00:21:40;41.53;;;22.03;;
7017;SDS011;3549;42.162;24.726;2023-03-23T00:26:37;40.80;;;21.73;;
7017;SDS011;3549;42.162;24.726;2023-03-23T00:29:06;42.97;;;21.43;;
7017;SDS011;3549;42.162;24.726;2023-03-23T00:31:34;44.20;;;22.30;;
7017;SDS011;3549;42.162;24.726;2023-03-23T00:34:01;43.10;;;22.60;;
7017;SDS011;3549;42.162;24.726;2023-03-23T00:36:29;47.33;;;23.77;;
7017;SDS011;3549;42.162;24.726;2023-03-23T00:38:56;42.83;;;22.97;;
7017;SDS011;3549;42.162;24.726;2023-03-23T00:41:26;43.13;;;23.53;;
7017;SDS011;3549;42.162;24.726;2023-03-23T00:43:53;47.27;;;24.37;;
7017;SDS011;3549;42.162;24.726;2023-03-23T00:46:20;43.93;;;23.83;;
7017;SDS011;3549;42.162;24.726;2023-03-23T00:48:45;48.57;;;24.60;;
7017;SDS011;3549;42.162;24.726;2023-03-23T00:51:11;44.97;;;23.80;;
7017;SDS011;3549;42.162;24.726;2023-03-23T00:53:40;44.37;;;23.90;;
7017;SDS011;3549;42.162;24.726;2023-03-23T00:56:06;49.03;;;24.43;;
7017;SDS011;3549;42.162;24.726;2023-03-23T00:58:33;53.77;;;27.57;;
7017;SDS011;3549;42.162;24.726;2023-03-23T01:00:58;56.57;;;29.10;;
7017;SDS011;3549;42.162;24.726;2023-03-23T01:03:24;56.57;;;27.40;;
7017;SDS011;3549;42.162;24.726;2023-03-23T01:05:51;53.53;;;25.43;;
7017;SDS011;3549;42.162;24.726;2023-03-23T01:08:17;49.40;;;26.10;;
7017;SDS011;3549;42.162;24.726;2023-03-23T01:10:43;49.40;;;25.23;;
7017;SDS011;3549;42.162;24.726;2023-03-23T01:13:13;52.53;;;24.80;;
7017;SDS011;3549;42.162;24.726;2023-03-23T01:15:39;47.67;;;23.50;;
7017;SDS011;3549;42.162;24.726;2023-03-23T01:18:05;44.50;;;22.47;;
7017;SDS011;3549;42.162;24.726;2023-03-23T01:20:30;47.27;;;22.47;;
7017;SDS011;3549;42.162;24.726;2023-03-23T01:22:59;45.90;;;23.23;;
7017;SDS011;3549;42.162;24.726;2023-03-23T01:25:31;45.90;;;23.60;;
7017;SDS011;3549;42.162;24.726;2023-03-23T01:28:00;48.50;;;24.10;;
7017;SDS011;3549;42.162;24.726;2023-03-23T01:30:26;48.87;;;23.53;;
7017;SDS011;3549;42.162;24.726;2023-03-23T01:32:51;47.87;;;23.07;;
7017;SDS011;3549;42.162;24.726;2023-03-23T01:35:17;46.27;;;22.70;;
7017;SDS011;3549;42.162;24.726;2023-03-23T01:37:43;45.73;;;22.50;;
7017;SDS011;3549;42.162;24.726;2023-03-23T01:40:09;47.23;;;23.00;;
7017;SDS011;3549;42.162;24.726;2023-03-23T01:42:36;48.90;;;23.03;;
7017;SDS011;3549;42.162;24.726;2023-03-23T01:45:25;49.67;;;23.97;;
7017;SDS011;3549;42.162;24.726;2023-03-23T01:47:52;47.17;;;22.80;;
7017;SDS011;3549;42.162;24.726;2023-03-23T01:50:42;50.80;;;24.17;;
7017;SDS011;3549;42.162;24.726;2023-03-23T01:53:15;51.17;;;24.53;;
7017;SDS011;3549;42.162;24.726;2023-03-23T01:55:41;51.60;;;24.30;;
7017;SDS011;3549;42.162;24.726;2023-03-23T01:58:13;50.77;;;25.00;;
7017;SDS011;3549;42.162;24.726;2023-03-23T02:00:42;52.83;;;24.40;;
7017;SDS011;3549;42.162;24.726;2023-03-23T02:03:08;50.50;;;23.60;;
7017;SDS011;3549;42.162;24.726;2023-03-23T02:05:36;47.17;;;22.47;;
7017;SDS011;3549;42.162;24.726;2023-03-23T02:08:04;53.77;;;24.83;;
7017;SDS011;3549;42.162;24.726;2023-03-23T02:10:33;50.80;;;23.73;;
7017;SDS011;3549;42.162;24.726;2023-03-23T02:13:00;52.70;;;24.23;;
7017;SDS011;3549;42.162;24.726;2023-03-23T02:15:30;46.57;;;22.17;;
7017;SDS011;3549;42.162;24.726;2023-03-23T02:42:13;55.07;;;25.83;;
7017;SDS011;3549;42.162;24.726;2023-03-23T02:44:42;57.17;;;25.47;;
7017;SDS011;3549;42.162;24.726;2023-03-23T02:47:11;54.47;;;24.30;;
7017;SDS011;3549;42.162;24.726;2023-03-23T02:49:41;53.70;;;24.90;;
7017;SDS011;3549;42.162;24.726;2023-03-23T02:52:12;60.30;;;25.13;;
7017;SDS011;3549;42.162;24.726;2023-03-23T02:54:46;59.73;;;25.07;;
7017;SDS011;3549;42.162;24.726;2023-03-23T02:57:14;54.13;;;24.10;;
7017;SDS011;3549;42.162;24.726;2023-03-23T02:59:40;50.13;;;22.80;;
7017;SDS011;3549;42.162;24.726;2023-03-23T03:02:13;52.20;;;22.93;;
7017;SDS011;3549;42.162;24.726;2023-03-23T03:04:45;57.93;;;23.53;;
7017;SDS011;3549;42.162;24.726;2023-03-23T03:12:39;53.80;;;23.83;;
7017;SDS011;3549;42.162;24.726;2023-03-23T03:15:23;51.00;;;22.77;;
7017;SDS011;3549;42.162;24.726;2023-03-23T03:20:48;55.90;;;24.53;;
7017;SDS011;3549;42.162;24.726;2023-03-23T03:23:19;55.23;;;24.33;;
7017;SDS011;3549;42.162;24.726;2023-03-23T03:25:47;45.37;;;22.10;;
7017;SDS011;3549;42.162;24.726;2023-03-23T03:28:19;46.73;;;20.80;;
7017;SDS011;3549;42.162;24.726;2023-03-23T03:30:56;44.60;;;20.63;;
7017;SDS011;3549;42.162;24.726;2023-03-23T03:33:26;46.83;;;20.70;;
7017;SDS011;3549;42.162;24.726;2023-03-23T03:35:56;43.63;;;19.57;;
7017;SDS011;3549;42.162;24.726;2023-03-23T03:38:25;41.10;;;19.27;;
7017;SDS011;3549;42.162;24.726;2023-03-23T03:40:51;61.47;;;26.77;;
7017;SDS011;3549;42.162;24.726;2023-03-23T03:43:18;53.13;;;24.90;;
7017;SDS011;3549;42.162;24.726;2023-03-23T03:45:43;54.70;;;25.00;;
7017;SDS011;3549;42.162;24.726;2023-03-23T03:48:09;88.10;;;35.00;;
7017;SDS011;3549;42.162;24.726;2023-03-23T03:50:35;63.27;;;26.43;;
7017;SDS011;3549;42.162;24.726;2023-03-23T03:53:00;59.67;;;26.03;;
7017;SDS011;3549;42.162;24.726;2023-03-23T03:55:26;69.47;;;28.60;;
7017;SDS011;3549;42.162;24.726;2023-03-23T03:57:53;54.90;;;24.00;;
7017;SDS011;3549;42.162;24.726;2023-03-23T04:00:20;64.43;;;29.03;;
7017;SDS011;3549;42.162;24.726;2023-03-23T04:02:47;69.40;;;31.87;;
7017;SDS011;3549;42.162;24.726;2023-03-23T04:05:16;69.03;;;32.03;;
7017;SDS011;3549;42.162;24.726;2023-03-23T04:07:43;79.10;;;35.07;;
7017;SDS011;3549;42.162;24.726;2023-03-23T04:10:11;71.47;;;33.30;;
7017;SDS011;3549;42.162;24.726;2023-03-23T04:12:38;76.57;;;34.27;;
7017;SDS011;3549;42.162;24.726;2023-03-23T04:15:03;68.80;;;31.17;;
7017;SDS011;3549;42.162;24.726;2023-03-23T04:17:29;53.30;;;24.67;;
7017;SDS011;3549;42.162;24.726;2023-03-23T04:19:55;55.97;;;25.57;;
7017;SDS011;3549;42.162;24.726;2023-03-23T04:22:25;68.43;;;31.77;;
7017;SDS011;3549;42.162;24.726;2023-03-23T04:24:55;79.43;;;36.37;;
7017;SDS011;3549;42.162;24.726;2023-03-23T04:27:24;70.40;;;31.40;;
7017;SDS011;3549;42.162;24.726;2023-03-23T04:29:54;49.93;;;23.90;;
7017;SDS011;3549;42.162;24.726;2023-03-23T04:32:23;44.83;;;21.90;;
7017;SDS011;3549;42.162;24.726;2023-03-23T04:34:54;42.47;;;20.03;;
7017;SDS011;3549;42.162;24.726;2023-03-23T04:37:21;44.70;;;20.23;;
7017;SDS011;3549;42.162;24.726;2023-03-23T04:39:50;40.67;;;19.57;;
7017;SDS011;3549;42.162;24.726;2023-03-23T04:42:24;41.70;;;19.77;;
7017;SDS011;3549;42.162;24.726;2023-03-23T04:44:51;41.27;;;19.70;;
7017;SDS011;3549;42.162;24.726;2023-03-23T04:47:18;42.97;;;19.60;;
7017;SDS011;3549;42.162;24.726;2023-03-23T04:49:44;49.00;;;23.43;;
7017;SDS011;3549;42.162;24.726;2023-03-23T04:52:10;53.20;;;25.97;;
7017;SDS011;3549;42.162;24.726;2023-03-23T04:54:35;67.57;;;32.83;;
7017;SDS011;3549;42.162;24.726;2023-03-23T04:57:00;68.93;;;33.07;;
7017;SDS011;3549;42.162;24.726;2023-03-23T04:59:26;54.13;;;26.67;;
7017;SDS011;3549;42.162;24.726;2023-03-23T05:01:52;43.37;;;22.23;;
7017;SDS011;3549;42.162;24.726;2023-03-23T05:04:18;39.37;;;19.13;;
7017;SDS011;3549;42.162;24.726;2023-03-23T05:06:44;41.67;;;18.77;;
7017;SDS011;3549;42.162;24.726;2023-03-23T05:09:10;46.77;;;21.17;;
7017;SDS011;3549;42.162;24.726;2023-03-23T05:11:36;52.07;;;25.03;;
7017;SDS011;3549;42.162;24.726;2023-03-23T05:14:03;57.00;;;25.47;;
7017;SDS011;3549;42.162;24.726;2023-03-23T05:16:29;68.83;;;32.67;;
7017;SDS011;3549;42.162;24.726;2023-03-23T05:18:55;77.40;;;36.87;;
7017;SDS011;3549;42.162;24.726;2023-03-23T05:21:22;69.13;;;33.00;;
7017;SDS011;3549;42.162;24.726;2023-03-23T05:23:48;65.27;;;32.50;;
7017;SDS011;3549;42.162;24.726;2023-03-23T05:26:22;73.90;;;37.40;;
7017;SDS011;3549;42.162;24.726;2023-03-23T05:28:53;61.23;;;30.60;;
7017;SDS011;3549;42.162;24.726;2023-03-23T05:31:19;66.93;;;33.00;;
7017;SDS011;3549;42.162;24.726;2023-03-23T05:33:44;74.40;;;38.73;;
7017;SDS011;3549;42.162;24.726;2023-03-23T05:36:10;61.93;;;32.63;;
7017;SDS011;3549;42.162;24.726;2023-03-23T05:38:38;56.00;;;27.20;;
7017;SDS011;3549;42.162;24.726;2023-03-23T05:41:13;46.37;;;19.83;;
7017;SDS011;3549;42.162;24.726;2023-03-23T05:43:39;49.40;;;25.00;;
7017;SDS011;3549;42.162;24.726;2023-03-23T05:46:05;56.97;;;27.77;;
7017;SDS011;3549;42.162;24.726;2023-03-23T05:48:31;55.20;;;25.53;;
7017;SDS011;3549;42.162;24.726;2023-03-23T05:50:57;41.00;;;20.67;;
7017;SDS011;3549;42.162;24.726;2023-03-23T05:53:23;49.50;;;21.67;;
7017;SDS011;3549;42.162;24.726;2023-03-23T05:55:49;44.77;;;22.33;;
7017;SDS011;3549;42.162;24.726;2023-03-23T05:58:14;59.70;;;27.40;;
7017;SDS011;3549;42.162;24.726;2023-03-23T06:00:40;60.53;;;29.50;;
7017;SDS011;3549;42.162;24.726;2023-03-23T06:03:06;69.50;;;32.27;;
7017;SDS011;3549;42.162;24.726;2023-03-23T06:05:31;76.00;;;35.43;;
7017;SDS011;3549;42.162;24.726;2023-03-23T06:07:57;75.13;;;36.10;;
7017;SDS011;3549;42.162;24.726;2023-03-23T06:10:24;54.40;;;26.30;;
7017;SDS011;3549;42.162;24.726;2023-03-23T06:12:50;51.17;;;25.40;;
7017;SDS011;3549;42.162;24.726;2023-03-23T06:15:16;62.93;;;27.60;;
7017;SDS011;3549;42.162;24.726;2023-03-23T06:17:42;54.53;;;26.63;;
7017;SDS011;3549;42.162;24.726;2023-03-23T06:20:08;49.03;;;24.47;;
7017;SDS011;3549;42.162;24.726;2023-03-23T06:22:35;48.47;;;24.57;;
7017;SDS011;3549;42.162;24.726;2023-03-23T06:25:08;52.10;;;23.80;;
7017;SDS011;3549;42.162;24.726;2023-03-23T06:27:36;52.97;;;23.37;;
7017;SDS011;3549;42.162;24.726;2023-03-23T06:30:03;49.37;;;23.00;;
7017;SDS011;3549;42.162;24.726;2023-03-23T06:32:30;50.73;;;25.80;;
7017;SDS011;3549;42.162;24.726;2023-03-23T06:34:57;55.27;;;23.97;;
7017;SDS011;3549;42.162;24.726;2023-03-23T06:37:23;44.83;;;22.97;;
7017;SDS011;3549;42.162;24.726;2023-03-23T06:39:49;49.37;;;23.10;;
7017;SDS011;3549;42.162;24.726;2023-03-23T06:42:14;47.87;;;24.83;;
7017;SDS011;3549;42.162;24.726;2023-03-23T06:44:40;46.83;;;23.03;;
7017;SDS011;3549;42.162;24.726;2023-03-23T06:47:05;48.27;;;24.00;;
7017;SDS011;3549;42.162;24.726;2023-03-23T06:49:32;50.77;;;22.53;;
7017;SDS011;3549;42.162;24.726;2023-03-23T06:51:58;45.83;;;22.70;;
7017;SDS011;3549;42.162;24.726;2023-03-23T06:54:25;43.93;;;22.23;;
7017;SDS011;3549;42.162;24.726;2023-03-23T06:56:51;42.80;;;22.37;;
7017;SDS011;3549;42.162;24.726;2023-03-23T06:59:16;47.47;;;23.27;;
7017;SDS011;3549;42.162;24.726;2023-03-23T07:01:42;45.70;;;22.57;;
7017;SDS011;3549;42.162;24.726;2023-03-23T07:04:07;43.07;;;22.20;;
7017;SDS011;3549;42.162;24.726;2023-03-23T07:06:32;41.10;;;21.77;;
7017;SDS011;3549;42.162;24.726;2023-03-23T07:08:58;52.33;;;28.60;;
7017;SDS011;3549;42.162;24.726;2023-03-23T07:11:23;41.70;;;21.63;;
7017;SDS011;3549;42.162;24.726;2023-03-23T07:13:50;40.67;;;20.23;;
7017;SDS011;3549;42.162;24.726;2023-03-23T07:16:16;36.50;;;19.97;;
7017;SDS011;3549;42.162;24.726;2023-03-23T07:18:42;39.90;;;20.10;;
7017;SDS011;3549;42.162;24.726;2023-03-23T07:21:08;37.03;;;19.37;;
7017;SDS011;3549;42.162;24.726;2023-03-23T07:23:33;40.30;;;19.70;;
7017;SDS011;3549;42.162;24.726;2023-03-23T07:25:59;42.87;;;18.40;;
7017;SDS011;3549;42.162;24.726;2023-03-23T07:28:25;41.23;;;20.70;;
7017;SDS011;3549;42.162;24.726;2023-03-23T07:30:51;31.83;;;17.03;;
7017;SDS011;3549;42.162;24.726;2023-03-23T07:33:17;30.80;;;17.13;;
7017;SDS011;3549;42.162;24.726;2023-03-23T07:35:42;32.67;;;16.27;;
7017;SDS011;3549;42.162;24.726;2023-03-23T07:38:08;30.33;;;16.87;;
7017;SDS011;3549;42.162;24.726;2023-03-23T07:40:34;34.03;;;17.30;;
7017;SDS011;3549;42.162;24.726;2023-03-23T07:43:00;31.50;;;17.20;;
7017;SDS011;3549;42.162;24.726;2023-03-23T07:45:27;32.27;;;17.57;;
7017;SDS011;3549;42.162;24.726;2023-03-23T07:47:53;27.83;;;16.47;;
7017;SDS011;3549;42.162;24.726;2023-03-23T07:50:19;27.83;;;16.20;;
7017;SDS011;3549;42.162;24.726;2023-03-23T07:52:49;28.77;;;15.40;;
7017;SDS011;3549;42.162;24.726;2023-03-23T07:55:15;22.17;;;13.67;;
7017;SDS011;3549;42.162;24.726;2023-03-23T07:57:45;22.70;;;14.47;;
7017;SDS011;3549;42.162;24.726;2023-03-23T08:00:12;26.03;;;15.90;;
7017;SDS011;3549;42.162;24.726;2023-03-23T08:02:41;27.17;;;15.97;;
7017;SDS011;3549;42.162;24.726;2023-03-23T08:05:07;25.33;;;14.40;;
7017;SDS011;3549;42.162;24.726;2023-03-23T08:07:33;24.70;;;14.57;;
7017;SDS011;3549;42.162;24.726;2023-03-23T08:09:59;30.13;;;16.70;;
7017;SDS011;3549;42.162;24.726;2023-03-23T08:12:27;26.63;;;15.47;;
7017;SDS011;3549;42.162;24.726;2023-03-23T08:14:53;27.30;;;15.83;;
7017;SDS011;3549;42.162;24.726;2023-03-23T08:17:19;26.63;;;16.63;;
7017;SDS011;3549;42.162;24.726;2023-03-23T08:19:44;25.87;;;17.63;;
7017;SDS011;3549;42.162;24.726;2023-03-23T08:22:10;22.80;;;13.67;;
7017;SDS011;3549;42.162;24.726;2023-03-23T08:24:36;24.37;;;14.23;;
7017;SDS011;3549;42.162;24.726;2023-03-23T08:27:03;25.27;;;15.20;;
7017;SDS011;3549;42.162;24.726;2023-03-23T08:29:29;22.93;;;14.43;;
7017;SDS011;3549;42.162;24.726;2023-03-23T08:31:56;21.60;;;13.53;;
7017;SDS011;3549;42.162;24.726;2023-03-23T08:34:22;20.07;;;11.60;;
7017;SDS011;3549;42.162;24.726;2023-03-23T08:36:48;21.40;;;12.97;;
7017;SDS011;3549;42.162;24.726;2023-03-23T08:39:13;17.70;;;11.17;;
7017;SDS011;3549;42.162;24.726;2023-03-23T08:41:43;21.77;;;12.33;;
7017;SDS011;3549;42.162;24.726;2023-03-23T08:44:09;18.80;;;11.93;;
7017;SDS011;3549;42.162;24.726;2023-03-23T08:46:38;22.30;;;12.80;;
7017;SDS011;3549;42.162;24.726;2023-03-23T08:49:04;18.00;;;11.80;;
7017;SDS011;3549;42.162;24.726;2023-03-23T08:51:30;16.27;;;11.43;;
7017;SDS011;3549;42.162;24.726;2023-03-23T08:53:56;27.60;;;16.87;;
7017;SDS011;3549;42.162;24.726;2023-03-23T08:56:22;24.47;;;15.50;;
7017;SDS011;3549;42.162;24.726;2023-03-23T08:58:47;26.33;;;17.27;;
7017;SDS011;3549;42.162;24.726;2023-03-23T09:01:13;20.60;;;12.90;;
7017;SDS011;3549;42.162;24.726;2023-03-23T09:03:39;19.90;;;13.80;;
7017;SDS011;3549;42.162;24.726;2023-03-23T09:06:06;20.73;;;14.60;;
7017;SDS011;3549;42.162;24.726;2023-03-23T09:08:33;20.13;;;13.27;;
7017;SDS011;3549;42.162;24.726;2023-03-23T09:11:03;20.57;;;13.83;;
7017;SDS011;3549;42.162;24.726;2023-03-23T09:13:32;24.03;;;15.43;;
7017;SDS011;3549;42.162;24.726;2023-03-23T09:15:58;21.93;;;12.87;;
7017;SDS011;3549;42.162;24.726;2023-03-23T09:18:23;19.30;;;12.70;;
7017;SDS011;3549;42.162;24.726;2023-03-23T09:20:49;22.47;;;13.27;;
7017;SDS011;3549;42.162;24.726;2023-03-23T09:23:16;18.83;;;12.63;;
7017;SDS011;3549;42.162;24.726;2023-03-23T09:25:41;18.63;;;11.73;;
7017;SDS011;3549;42.162;24.726;2023-03-23T09:28:07;17.50;;;11.50;;
7017;SDS011;3549;42.162;24.726;2023-03-23T09:30:33;19.40;;;11.70;;
7017;SDS011;3549;42.162;24.726;2023-03-23T09:33:01;20.70;;;11.90;;
7017;SDS011;3549;42.162;24.726;2023-03-23T09:35:28;17.20;;;11.10;;
7017;SDS011;3549;42.162;24.726;2023-03-23T09:37:54;17.57;;;11.43;;
7017;SDS011;3549;42.162;24.726;2023-03-23T09:42:49;10.40;;;6.90;;
7017;SDS011;3549;42.162;24.726;2023-03-23T09:45:21;11.73;;;8.53;;
7017;SDS011;3549;42.162;24.726;2023-03-23T09:57:11;10.60;;;7.90;;
7017;SDS011;3549;42.162;24.726;2023-03-23T09:59:47;10.87;;;7.23;;
7017;SDS011;3549;42.162;24.726;2023-03-23T10:02:19;11.77;;;7.30;;
7017;SDS011;3549;42.162;24.726;2023-03-23T10:04:51;11.97;;;7.03;;
7017;SDS011;3549;42.162;24.726;2023-03-23T10:07:21;6.97;;;5.30;;
7017;SDS011;3549;42.162;24.726;2023-03-23T10:09:51;8.20;;;5.33;;
7017;SDS011;3549;42.162;24.726;2023-03-23T10:12:29;9.90;;;7.53;;
7017;SDS011;3549;42.162;24.726;2023-03-23T10:15:20;11.87;;;7.77;;
7017;SDS011;3549;42.162;24.726;2023-03-23T10:20:33;11.27;;;7.67;;
7017;SDS011;3549;42.162;24.726;2023-03-23T10:25:48;8.47;;;6.13;;
7017;SDS011;3549;42.162;24.726;2023-03-23T10:28:21;9.30;;;6.47;;
7017;SDS011;3549;42.162;24.726;2023-03-23T10:30:54;9.97;;;7.00;;
7017;SDS011;3549;42.162;24.726;2023-03-23T10:38:58;10.07;;;7.40;;
7017;SDS011;3549;42.162;24.726;2023-03-23T10:41:25;10.70;;;7.37;;
7017;SDS011;3549;42.162;24.726;2023-03-23T10:43:51;8.73;;;6.57;;
7017;SDS011;3549;42.162;24.726;2023-03-23T10:49:02;11.10;;;7.37;;
7017;SDS011;3549;42.162;24.726;2023-03-23T10:51:37;5.23;;;4.53;;
7017;SDS011;3549;42.162;24.726;2023-03-23T10:54:05;5.83;;;4.63;;
7017;SDS011;3549;42.162;24.726;2023-03-23T10:59:14;6.83;;;5.13;;
7017;SDS011;3549;42.162;24.726;2023-03-23T11:01:45;6.73;;;5.57;;
7017;SDS011;3549;42.162;24.726;2023-03-23T11:04:13;9.67;;;7.10;;
7017;SDS011;3549;42.162;24.726;2023-03-23T11:06:45;11.13;;;6.53;;
7017;SDS011;3549;42.162;24.726;2023-03-23T11:09:14;8.87;;;6.70;;
7017;SDS011;3549;42.162;24.726;2023-03-23T11:11:49;9.13;;;6.73;;
7017;SDS011;3549;42.162;24.726;2023-03-23T11:14:29;7.47;;;5.47;;
7017;SDS011;3549;42.162;24.726;2023-03-23T11:17:00;8.90;;;5.47;;
7017;SDS011;3549;42.162;24.726;2023-03-23T11:24:30;7.50;;;5.57;;
7017;SDS011;3549;42.162;24.726;2023-03-23T11:26:58;7.80;;;6.10;;
7017;SDS011;3549;42.162;24.726;2023-03-23T11:29:25;8.17;;;6.20;;
7017;SDS011;3549;42.162;24.726;2023-03-23T11:32:00;8.90;;;6.07;;
7017;SDS011;3549;42.162;24.726;2023-03-23T11:34:33;7.60;;;6.00;;
7017;SDS011;3549;42.162;24.726;2023-03-23T11:37:02;8.10;;;5.83;;
7017;SDS011;3549;42.162;24.726;2023-03-23T11:39:45;7.20;;;5.20;;
7017;SDS011;3549;42.162;24.726;2023-03-23T11:42:20;7.90;;;4.93;;
7017;SDS011;3549;42.162;24.726;2023-03-23T11:44:53;6.80;;;5.40;;
7017;SDS011;3549;42.162;24.726;2023-03-23T11:47:42;6.33;;;4.97;;
7017;SDS011;3549;42.162;24.726;2023-03-23T11:50:27;5.63;;;4.50;;
7017;SDS011;3549;42.162;24.726;2023-03-23T11:58:29;8.33;;;6.00;;
7017;SDS011;3549;42.162;24.726;2023-03-23T12:01:00;7.27;;;5.47;;
7017;SDS011;3549;42.162;24.726;2023-03-23T12:09:17;15.73;;;10.13;;
7017;SDS011;3549;42.162;24.726;2023-03-23T12:17:29;15.03;;;10.60;;
7017;SDS011;3549;42.162;24.726;2023-03-23T12:30:30;12.27;;;8.80;;
7017;SDS011;3549;42.162;24.726;2023-03-23T12:33:09;12.60;;;8.90;;
7017;SDS011;3549;42.162;24.726;2023-03-23T12:35:51;11.67;;;8.60;;
7017;SDS011;3549;42.162;24.726;2023-03-23T12:38:24;10.33;;;8.30;;
7017;SDS011;3549;42.162;24.726;2023-03-23T12:44:09;10.70;;;8.07;;
7017;SDS011;3549;42.162;24.726;2023-03-23T12:49:46;10.97;;;7.50;;
7017;SDS011;3549;42.162;24.726;2023-03-23T12:52:20;9.67;;;7.37;;
7017;SDS011;3549;42.162;24.726;2023-03-23T13:00:47;10.20;;;7.60;;
7017;SDS011;3549;42.162;24.726;2023-03-23T13:08:43;12.03;;;7.03;;
7017;SDS011;3549;42.162;24.726;2023-03-23T13:11:16;10.73;;;7.20;;
7017;SDS011;3549;42.162;24.726;2023-03-23T13:24:31;9.40;;;6.10;;
7017;SDS011;3549;42.162;24.726;2023-03-23T13:27:00;8.57;;;6.37;;
7017;SDS011;3549;42.162;24.726;2023-03-23T13:29:26;8.07;;;5.80;;
7017;SDS011;3549;42.162;24.726;2023-03-23T13:31:52;6.40;;;5.50;;
7017;SDS011;3549;42.162;24.726;2023-03-23T13:34:31;5.83;;;4.87;;
7017;SDS011;3549;42.162;24.726;2023-03-23T13:37:04;5.70;;;4.80;;
7017;SDS011;3549;42.162;24.726;2023-03-23T13:39:52;7.63;;;5.73;;
7017;SDS011;3549;42.162;24.726;2023-03-23T13:42:25;7.30;;;5.40;;
7017;SDS011;3549;42.162;24.726;2023-03-23T13:53:23;7.63;;;5.40;;
7017;SDS011;3549;42.162;24.726;2023-03-23T13:55:50;8.10;;;5.17;;
7017;SDS011;3549;42.162;24.726;2023-03-23T13:58:23;7.20;;;5.10;;
7017;SDS011;3549;42.162;24.726;2023-03-23T14:01:10;6.23;;;5.10;;
7017;SDS011;3549;42.162;24.726;2023-03-23T14:03:41;8.07;;;5.40;;
7017;SDS011;3549;42.162;24.726;2023-03-23T14:06:14;7.43;;;5.60;;
7017;SDS011;3549;42.162;24.726;2023-03-23T14:08:43;7.40;;;5.40;;
7017;SDS011;3549;42.162;24.726;2023-03-23T14:16:31;8.07;;;5.80;;
7017;SDS011;3549;42.162;24.726;2023-03-23T14:19:01;7.00;;;5.30;;
7017;SDS011;3549;42.162;24.726;2023-03-23T14:21:36;8.13;;;5.80;;
7017;SDS011;3549;42.162;24.726;2023-03-23T14:24:26;7.27;;;5.70;;
7017;SDS011;3549;42.162;24.726;2023-03-23T14:29:30;7.53;;;5.90;;
7017;SDS011;3549;42.162;24.726;2023-03-23T14:31:56;5.73;;;4.80;;
7017;SDS011;3549;42.162;24.726;2023-03-23T14:34:28;7.73;;;5.30;;
7017;SDS011;3549;42.162;24.726;2023-03-23T14:36:56;6.63;;;5.33;;
7017;SDS011;3549;42.162;24.726;2023-03-23T14:42:01;10.20;;;6.00;;
7017;SDS011;3549;42.162;24.726;2023-03-23T14:44:35;9.47;;;6.40;;
7017;SDS011;3549;42.162;24.726;2023-03-23T14:47:06;8.40;;;5.93;;
7017;SDS011;3549;42.162;24.726;2023-03-23T14:49:39;8.07;;;5.83;;
7017;SDS011;3549;42.162;24.726;2023-03-23T14:52:11;8.87;;;5.47;;
7017;SDS011;3549;42.162;24.726;2023-03-23T14:54:38;8.27;;;5.43;;
7017;SDS011;3549;42.162;24.726;2023-03-23T14:57:19;7.50;;;6.10;;
7017;SDS011;3549;42.162;24.726;2023-03-23T14:59:51;10.37;;;5.90;;
7017;SDS011;3549;42.162;24.726;2023-03-23T15:02:22;6.83;;;5.70;;
7017;SDS011;3549;42.162;24.726;2023-03-23T15:04:53;8.47;;;6.87;;
7017;SDS011;3549;42.162;24.726;2023-03-23T15:07:26;6.93;;;5.87;;
7017;SDS011;3549;42.162;24.726;2023-03-23T15:09:55;6.40;;;5.63;;
7017;SDS011;3549;42.162;24.726;2023-03-23T15:12:22;7.25;;;5.63;;
7017;SDS011;3549;42.162;24.726;2023-03-23T15:15:01;7.22;;;5.60;;
7017;SDS011;3549;42.162;24.726;2023-03-23T15:17:38;6.00;;;5.30;;
7017;SDS011;3549;42.162;24.726;2023-03-23T15:20:08;8.15;;;5.43;;
7017;SDS011;3549;42.162;24.726;2023-03-23T15:22:46;9.48;;;5.28;;
7017;SDS011;3549;42.162;24.726;2023-03-23T15:25:29;5.78;;;4.82;;
7017;SDS011;3549;42.162;24.726;2023-03-23T15:27:57;7.57;;;5.50;;
7017;SDS011;3549;42.162;24.726;2023-03-23T15:30:33;7.80;;;5.67;;
7017;SDS011;3549;42.162;24.726;2023-03-23T15:33:03;8.47;;;5.20;;
7017;SDS011;3549;42.162;24.726;2023-03-23T15:35:35;6.80;;;5.77;;
7017;SDS011;3549;42.162;24.726;2023-03-23T15:38:06;6.97;;;5.77;;
7017;SDS011;3549;42.162;24.726;2023-03-23T15:40:40;7.23;;;5.67;;
7017;SDS011;3549;42.162;24.726;2023-03-23T15:43:17;16.37;;;5.90;;
7017;SDS011;3549;42.162;24.726;2023-03-23T15:48:28;10.87;;;6.23;;
7017;SDS011;3549;42.162;24.726;2023-03-23T15:50:58;8.20;;;6.07;;
7017;SDS011;3549;42.162;24.726;2023-03-23T15:55:58;7.40;;;5.70;;
7017;SDS011;3549;42.162;24.726;2023-03-23T15:58:25;7.10;;;5.50;;
7017;SDS011;3549;42.162;24.726;2023-03-23T16:00:51;11.53;;;6.40;;
7017;SDS011;3549;42.162;24.726;2023-03-23T16:03:24;8.83;;;6.17;;
7017;SDS011;3549;42.162;24.726;2023-03-23T16:05:55;12.50;;;6.97;;
7017;SDS011;3549;42.162;24.726;2023-03-23T16:08:24;10.77;;;6.40;;
7017;SDS011;3549;42.162;24.726;2023-03-23T16:10:49;10.70;;;7.00;;
7017;SDS011;3549;42.162;24.726;2023-03-23T16:13:15;10.67;;;7.13;;
7017;SDS011;3549;42.162;24.726;2023-03-23T16:15:40;10.13;;;7.10;;
7017;SDS011;3549;42.162;24.726;2023-03-23T16:18:08;13.53;;;8.70;;
7017;SDS011;3549;42.162;24.726;2023-03-23T16:20:41;15.17;;;8.60;;
7017;SDS011;3549;42.162;24.726;2023-03-23T16:23:07;13.17;;;8.00;;
7017;SDS011;3549;42.162;24.726;2023-03-23T16:25:32;11.40;;;7.73;;
7017;SDS011;3549;42.162;24.726;2023-03-23T16:27:58;12.40;;;7.80;;
7017;SDS011;3549;42.162;24.726;2023-03-23T16:30:24;12.23;;;7.97;;
7017;SDS011;3549;42.162;24.726;2023-03-23T16:32:51;12.53;;;8.50;;
7017;SDS011;3549;42.162;24.726;2023-03-23T16:35:18;11.90;;;8.30;;
7017;SDS011;3549;42.162;24.726;2023-03-23T16:37:45;11.83;;;8.30;;
7017;SDS011;3549;42.162;24.726;2023-03-23T16:40:12;11.50;;;8.13;;
7017;SDS011;3549;42.162;24.726;2023-03-23T16:42:38;13.00;;;8.30;;
7017;SDS011;3549;42.162;24.726;2023-03-23T16:45:04;15.87;;;8.70;;
7017;SDS011;3549;42.162;24.726;2023-03-23T16:47:30;12.43;;;8.77;;
7017;SDS011;3549;42.162;24.726;2023-03-23T16:49:56;12.23;;;8.50;;
7017;SDS011;3549;42.162;24.726;2023-03-23T16:52:21;13.30;;;8.70;;
7017;SDS011;3549;42.162;24.726;2023-03-23T16:54:47;13.83;;;9.10;;
7017;SDS011;3549;42.162;24.726;2023-03-23T16:57:12;16.17;;;10.67;;
7017;SDS011;3549;42.162;24.726;2023-03-23T16:59:38;18.90;;;12.70;;
7017;SDS011;3549;42.162;24.726;2023-03-23T17:02:03;22.73;;;13.67;;
7017;SDS011;3549;42.162;24.726;2023-03-23T17:04:30;21.87;;;14.17;;
7017;SDS011;3549;42.162;24.726;2023-03-23T17:06:56;22.17;;;12.70;;
7017;SDS011;3549;42.162;24.726;2023-03-23T17:09:26;19.53;;;12.47;;
7017;SDS011;3549;42.162;24.726;2023-03-23T17:11:52;18.73;;;12.17;;
7017;SDS011;3549;42.162;24.726;2023-03-23T17:14:18;20.50;;;12.20;;
7017;SDS011;3549;42.162;24.726;2023-03-23T17:16:44;19.30;;;11.90;;
7017;SDS011;3549;42.162;24.726;2023-03-23T17:19:10;16.20;;;10.77;;
7017;SDS011;3549;42.162;24.726;2023-03-23T17:21:38;18.43;;;11.80;;